CYOW/YOW METAR and TAF weather

Enter ICAO airport designator
Station Type Date Time Source
CYOW METAR 2019/10/18 06:00 UTC NOAA

CYOW 180600Z 30013G21KT 15SM OVC022 07/04 A2964 RMK SC8 SLP043


Station Type Date Time Source
CYOW Decoded METAR 2019/10/18 06:00 UTC NOAA

Ottawa Int'L. Ont., Canada (CYOW) 45-19N 075-40W 114M
Oct 18, 2019 - 02:00 AM EDT / 2019.10.18 0600 UTC
Wind: from the WNW (300 degrees) at 15 MPH (13 KT) gusting to 24 MPH (21 KT):0
Visibility: 15 mile(s):0
Sky conditions: overcast
Temperature: 44 F (7 C)
Dew Point: 39 F (4 C)
Relative Humidity: 81%
Pressure (altimeter): 29.64 in. Hg (1003 hPa)
ob: CYOW 180600Z 30013G21KT 15SM OVC022 07/04 A2964 RMK SC8 SLP043
cycle: 6

Station Type Date Time Source
CYOW TAF 2019/10/18 06:42 UTC NOAA

TAF CYOW 180538Z 1806/1906 31012G22KT P6SM BKN025 OVC050
TEMPO 1806/1815 OVC020
FM182100 30012KT P6SM BKN030
BECMG 1900/1902 30008KT
RMK NXT FCST BY 180900Z

Example: see airport list